createdAt,value
2022-09-25T00:00:49.309Z,15.48
2022-09-25T00:03:17.129Z,15.43
2022-09-25T00:05:48.199Z,15.42
2022-09-25T00:08:16.640Z,15.40
2022-09-25T00:10:48.713Z,15.37
2022-09-25T00:13:19.719Z,15.35
2022-09-25T00:15:55.040Z,15.34
2022-09-25T00:18:41.979Z,15.31
2022-09-25T00:21:12.385Z,15.12
2022-09-25T00:23:40.316Z,15.09
2022-09-25T00:26:08.162Z,15.11
2022-09-25T00:28:36.454Z,15.09
2022-09-25T00:31:04.791Z,15.18
2022-09-25T00:33:35.462Z,15.14
2022-09-25T00:36:06.879Z,15.14
2022-09-25T00:38:35.168Z,15.16
2022-09-25T00:41:02.613Z,15.21
2022-09-25T00:43:37.973Z,15.18
2022-09-25T00:46:25.496Z,15.25
2022-09-25T00:49:04.262Z,15.22
2022-09-25T00:51:54.673Z,15.27
2022-09-25T00:54:28.021Z,15.27
2022-09-25T00:56:56.934Z,15.34
2022-09-25T00:59:26.830Z,15.39
2022-09-25T01:01:55.311Z,15.42
2022-09-25T01:04:23.174Z,15.40
2022-09-25T01:06:50.573Z,15.43
2022-09-25T01:09:18.812Z,15.41
2022-09-25T01:11:46.229Z,15.38
2022-09-25T01:14:17.468Z,15.34
2022-09-25T01:16:47.171Z,15.39
2022-09-25T01:19:17.289Z,15.36
2022-09-25T01:21:58.921Z,15.38
2022-09-25T01:24:44.432Z,15.37
2022-09-25T01:27:18.031Z,15.52
2022-09-25T01:29:54.256Z,15.62
2022-09-25T01:32:39.302Z,15.64
2022-09-25T01:35:18.420Z,15.56
2022-09-25T01:38:00.050Z,15.56
2022-09-25T01:40:41.289Z,15.57
2022-09-25T01:43:08.456Z,15.54
2022-09-25T01:45:55.469Z,15.58
2022-09-25T01:48:32.595Z,15.60
2022-09-25T01:51:02.193Z,15.61
2022-09-25T01:53:32.505Z,15.52
2022-09-25T01:56:05.856Z,15.50
2022-09-25T01:58:32.931Z,15.59
2022-09-25T02:01:11.076Z,15.60
2022-09-25T02:03:41.550Z,15.60
2022-09-25T02:06:12.796Z,15.51
2022-09-25T02:08:44.111Z,15.50
2022-09-25T02:11:12.508Z,15.48
2022-09-25T02:14:00.320Z,15.44
2022-09-25T02:16:38.499Z,15.37
2022-09-25T02:19:24.848Z,15.36
2022-09-25T02:21:55.087Z,15.45
2022-09-25T02:24:29.824Z,15.44
2022-09-25T02:26:56.953Z,15.40
2022-09-25T02:29:24.107Z,15.36
2022-09-25T02:31:57.918Z,15.34
2022-09-25T02:34:25.597Z,15.31
2022-09-25T02:36:52.719Z,15.29
2022-09-25T02:39:22.599Z,15.33
2022-09-25T02:42:07.858Z,15.31
2022-09-25T02:44:40.742Z,15.25
2022-09-25T02:47:07.825Z,15.05
2022-09-25T02:49:43.523Z,14.99
2022-09-25T02:52:20.452Z,15.03
2022-09-25T02:54:55.345Z,15.06
2022-09-25T02:57:48.761Z,15.08
2022-09-25T03:00:16.182Z,15.12
2022-09-25T03:02:51.431Z,15.08
2022-09-25T03:05:20.182Z,15.06
2022-09-25T03:08:05.740Z,15.10
2022-09-25T03:10:35.524Z,15.14
2022-09-25T03:13:19.428Z,15.17
2022-09-25T03:15:48.637Z,15.21
2022-09-25T03:18:16.809Z,15.25
2022-09-25T03:20:44.348Z,15.27
2022-09-25T03:23:11.749Z,15.26
2022-09-25T03:25:47.452Z,15.16
2022-09-25T03:28:17.922Z,15.11
2022-09-25T03:30:54.986Z,15.04
2022-09-25T03:33:22.199Z,15.02
2022-09-25T03:35:49.297Z,15.07
2022-09-25T03:38:16.401Z,15.12
2022-09-25T03:40:44.070Z,15.15
2022-09-25T03:45:37.828Z,15.16
2022-09-25T03:48:04.938Z,15.14
2022-09-25T03:50:31.989Z,15.09
2022-09-25T03:52:59.095Z,15.00
2022-09-25T03:55:26.155Z,14.92
2022-09-25T03:57:53.318Z,14.88
2022-09-25T04:00:20.459Z,14.95
2022-09-25T04:02:47.660Z,15.00
2022-09-25T04:05:14.856Z,15.04
2022-09-25T04:07:42.043Z,15.06
2022-09-25T04:10:09.197Z,15.04
2022-09-25T04:12:36.322Z,15.07
2022-09-25T04:15:03.621Z,14.95
2022-09-25T04:17:30.722Z,14.86
2022-09-25T04:19:57.812Z,14.80
2022-09-25T04:22:24.930Z,14.82
2022-09-25T04:24:52.415Z,14.91
2022-09-25T04:27:21.710Z,14.84
2022-09-25T04:29:49.549Z,14.91
2022-09-25T04:32:35.412Z,14.96
2022-09-25T04:35:02.816Z,15.01
2022-09-25T04:37:30.041Z,15.01
2022-09-25T04:39:57.853Z,14.92
2022-09-25T04:42:25.338Z,14.93
2022-09-25T04:44:53.583Z,14.85
2022-09-25T04:47:25.153Z,14.90
2022-09-25T04:49:52.609Z,14.90
2022-09-25T04:52:20.334Z,14.94
2022-09-25T04:54:47.832Z,14.96
2022-09-25T04:57:32.595Z,14.85
2022-09-25T05:00:03.819Z,14.77
2022-09-25T05:02:31.120Z,14.74
2022-09-25T05:04:58.310Z,14.81
2022-09-25T05:07:25.516Z,14.93
2022-09-25T05:09:52.677Z,14.97
2022-09-25T05:12:20.740Z,14.98
2022-09-25T05:14:47.823Z,15.04
2022-09-25T05:17:14.918Z,15.07
2022-09-25T05:19:42.088Z,15.25
2022-09-25T05:22:09.219Z,15.22
2022-09-25T05:24:37.182Z,15.20
2022-09-25T05:27:04.255Z,15.14
2022-09-25T05:29:31.500Z,15.07
2022-09-25T05:31:58.863Z,14.96
2022-09-25T05:34:25.917Z,14.88
2022-09-25T05:36:53.052Z,14.79
2022-09-25T05:39:20.147Z,14.81
2022-09-25T05:41:47.203Z,14.79
2022-09-25T05:44:14.920Z,14.77
2022-09-25T05:46:42.326Z,14.84
2022-09-25T05:49:09.602Z,14.99
2022-09-25T05:51:36.643Z,15.12
2022-09-25T05:54:03.866Z,15.19
2022-09-25T05:56:30.986Z,15.25
2022-09-25T05:58:58.722Z,15.31
2022-09-25T06:01:26.173Z,15.30
2022-09-25T06:03:53.341Z,15.32
2022-09-25T06:06:23.773Z,15.43
2022-09-25T06:08:54.730Z,15.53
2022-09-25T06:11:22.415Z,15.40
2022-09-25T06:13:54.248Z,15.35
2022-09-25T06:16:21.834Z,15.24
2022-09-25T06:18:49.289Z,15.22
2022-09-25T06:21:16.423Z,15.25
2022-09-25T06:23:46.738Z,15.29
2022-09-25T06:26:14.174Z,15.39
2022-09-25T06:28:41.351Z,15.46
2022-09-25T06:31:08.646Z,15.40
2022-09-25T06:33:35.781Z,15.48
2022-09-25T06:36:04.805Z,15.46
2022-09-25T06:38:34.357Z,15.37
2022-09-25T06:41:01.802Z,15.35
2022-09-25T06:43:30.395Z,15.39
2022-09-25T06:46:02.394Z,15.49
2022-09-25T06:48:30.328Z,15.60
2022-09-25T06:50:59.516Z,15.69
2022-09-25T06:53:26.648Z,15.85
2022-09-25T06:55:56.427Z,16.05
2022-09-25T06:58:23.941Z,15.99
2022-09-25T07:00:52.002Z,16.04
2022-09-25T07:03:37.576Z,15.98
2022-09-25T07:06:05.804Z,16.12
2022-09-25T07:08:33.371Z,16.08
2022-09-25T07:11:01.586Z,16.25
2022-09-25T07:13:30.209Z,16.34
2022-09-25T07:16:07.163Z,16.36
2022-09-25T07:18:34.496Z,16.32
2022-09-25T07:21:02.769Z,16.51
2022-09-25T07:23:31.204Z,16.59
2022-09-25T07:26:31.255Z,16.52
2022-09-25T07:29:00.277Z,16.49
2022-09-25T07:31:28.976Z,16.41
2022-09-25T07:33:57.753Z,16.52
2022-09-25T07:36:24.904Z,16.63
2022-09-25T07:38:52.707Z,16.63
2022-09-25T07:41:21.082Z,16.66
2022-09-25T07:43:58.408Z,16.84
2022-09-25T07:46:44.383Z,17.00
2022-09-25T07:49:12.300Z,17.44
2022-09-25T07:51:40.447Z,17.74
2022-09-25T07:54:07.647Z,17.59
2022-09-25T07:56:34.808Z,17.48
2022-09-25T07:59:01.942Z,17.33
2022-09-25T08:01:29.134Z,17.17
2022-09-25T08:03:56.278Z,16.96
2022-09-25T08:06:23.368Z,16.95
2022-09-25T08:08:50.518Z,17.13
2022-09-25T08:11:18.264Z,17.04
2022-09-25T08:13:46.255Z,17.08
2022-09-25T08:16:17.659Z,17.06
2022-09-25T08:18:46.317Z,16.95
2022-09-25T08:21:14.600Z,16.96
2022-09-25T08:23:47.515Z,16.98
2022-09-25T08:26:15.964Z,16.93
2022-09-25T08:28:44.111Z,17.06
2022-09-25T08:31:11.413Z,17.16
2022-09-25T08:33:40.329Z,17.22
2022-09-25T08:36:07.461Z,17.25
2022-09-25T08:38:34.582Z,17.20
2022-09-25T08:41:20.535Z,17.27
2022-09-25T08:44:06.492Z,17.14
2022-09-25T08:47:00.555Z,17.19
2022-09-25T08:49:29.514Z,17.34
2022-09-25T08:52:01.262Z,17.38
2022-09-25T08:54:31.009Z,17.41
2022-09-25T08:57:04.905Z,17.40
2022-09-25T08:59:34.403Z,17.59
2022-09-25T09:02:14.364Z,17.69
2022-09-25T09:04:52.319Z,17.66
2022-09-25T09:07:30.722Z,17.72
2022-09-25T09:09:57.921Z,17.82
2022-09-25T09:12:34.287Z,17.93
2022-09-25T09:15:14.712Z,18.13
2022-09-25T09:17:42.476Z,18.19
2022-09-25T09:20:18.663Z,18.36
2022-09-25T09:22:48.281Z,18.49
2022-09-25T09:25:26.329Z,18.36
2022-09-25T09:27:53.403Z,18.59
2022-09-25T09:30:23.825Z,18.79
2022-09-25T09:32:55.115Z,18.69
2022-09-25T09:35:33.416Z,18.44
2022-09-25T09:38:14.960Z,18.59
2022-09-25T09:40:54.477Z,18.71
2022-09-25T09:43:40.497Z,18.68
2022-09-25T09:46:07.605Z,18.76
2022-09-25T09:48:42.014Z,18.55
2022-09-25T09:51:15.531Z,18.67
2022-09-25T09:53:46.366Z,18.69
2022-09-25T09:56:22.333Z,18.70
2022-09-25T09:58:50.272Z,18.84
2022-09-25T10:01:40.115Z,18.77
2022-09-25T10:04:06.275Z,18.60
2022-09-25T10:06:36.019Z,18.64
2022-09-25T10:09:03.368Z,18.62
2022-09-25T10:11:32.174Z,18.69
2022-09-25T10:14:03.277Z,18.58
2022-09-25T10:16:30.768Z,18.54
2022-09-25T10:19:27.035Z,18.47
2022-09-25T10:22:05.297Z,18.40
2022-09-25T10:24:51.916Z,18.41
2022-09-25T10:27:21.454Z,18.45
2022-09-25T10:30:00.943Z,18.53
2022-09-25T10:32:28.348Z,18.58
2022-09-25T10:34:56.105Z,18.60
2022-09-25T10:37:29.176Z,18.56
2022-09-25T10:40:04.955Z,18.58
2022-09-25T10:42:40.981Z,18.73
2022-09-25T10:45:40.866Z,18.87
2022-09-25T10:48:58.818Z,19.01
2022-09-25T10:51:26.232Z,19.03
2022-09-25T10:54:19.430Z,19.08
2022-09-25T10:56:46.818Z,19.03
2022-09-25T10:59:18.020Z,19.06
2022-09-25T11:01:46.229Z,19.07
2022-09-25T11:04:13.398Z,19.09
2022-09-25T11:06:45.108Z,19.04
2022-09-25T11:09:17.588Z,18.84
2022-09-25T11:11:47.071Z,18.84
2022-09-25T11:14:19.350Z,18.82
2022-09-25T11:16:48.018Z,18.76
2022-09-25T11:19:24.964Z,18.77
2022-09-25T11:21:57.830Z,18.82
2022-09-25T11:24:30.923Z,18.89
2022-09-25T11:27:24.129Z,18.93
2022-09-25T11:29:58.456Z,18.83
2022-09-25T11:32:39.096Z,18.91
2022-09-25T11:35:17.458Z,18.98
2022-09-25T11:37:53.641Z,19.03
2022-09-25T11:40:50.835Z,18.96
2022-09-25T11:43:26.114Z,18.87
2022-09-25T11:46:02.771Z,18.84
2022-09-25T11:48:54.557Z,18.87
2022-09-25T11:51:45.113Z,18.84
2022-09-25T11:54:33.844Z,19.01
2022-09-25T11:57:01.440Z,19.09
2022-09-25T11:59:38.379Z,19.08
2022-09-25T12:02:19.844Z,19.00
2022-09-25T12:04:56.051Z,18.90
2022-09-25T12:07:32.610Z,18.94
2022-09-25T12:10:07.326Z,19.02
2022-09-25T12:12:41.580Z,18.90
2022-09-25T12:15:27.415Z,18.83
2022-09-25T12:17:54.569Z,18.80
2022-09-25T12:20:33.019Z,18.78
2022-09-25T12:23:08.581Z,18.73
2022-09-25T12:25:48.101Z,18.73
2022-09-25T12:28:25.024Z,18.76
2022-09-25T12:31:12.190Z,18.84
2022-09-25T12:33:49.005Z,18.89
2022-09-25T12:36:22.560Z,18.86
2022-09-25T12:39:05.282Z,18.82
2022-09-25T12:41:40.742Z,18.93
2022-09-25T12:44:12.809Z,18.85
2022-09-25T12:46:52.173Z,18.82
2022-09-25T12:49:37.761Z,18.92
2022-09-25T12:52:12.946Z,19.09
2022-09-25T12:54:49.494Z,19.21
2022-09-25T12:57:20.135Z,19.06
2022-09-25T13:00:00.239Z,19.08
2022-09-25T13:02:42.628Z,19.12
2022-09-25T13:05:34.026Z,19.12
2022-09-25T13:08:27.392Z,19.27
2022-09-25T13:11:13.177Z,19.22
2022-09-25T13:13:45.307Z,19.19
2022-09-25T13:16:15.973Z,19.20
2022-09-25T13:19:06.307Z,19.22
2022-09-25T13:21:38.428Z,19.16
2022-09-25T13:24:10.018Z,19.16
2022-09-25T13:26:45.177Z,19.22
2022-09-25T13:29:21.070Z,19.25
2022-09-25T13:31:48.299Z,19.20
2022-09-25T13:34:17.462Z,19.17
2022-09-25T13:36:49.163Z,19.26
2022-09-25T13:39:42.484Z,19.27
2022-09-25T13:42:24.630Z,19.29
2022-09-25T13:45:11.983Z,19.20
2022-09-25T13:47:43.355Z,19.20
2022-09-25T13:50:10.431Z,19.16
2022-09-25T13:52:40.365Z,19.16
2022-09-25T13:55:13.248Z,19.32
2022-09-25T13:57:58.641Z,19.22
2022-09-25T14:00:26.573Z,19.16
2022-09-25T14:03:01.658Z,19.17
2022-09-25T14:05:36.090Z,19.22
2022-09-25T14:08:03.200Z,19.23
2022-09-25T14:10:30.310Z,19.23
2022-09-25T14:12:57.477Z,19.16
2022-09-25T14:15:28.335Z,19.15
2022-09-25T14:17:57.516Z,19.15
2022-09-25T14:20:48.351Z,19.09
2022-09-25T14:23:18.225Z,19.09
2022-09-25T14:25:47.061Z,19.11
2022-09-25T14:28:19.638Z,19.23
2022-09-25T14:30:53.059Z,19.16
2022-09-25T14:33:30.815Z,19.19
2022-09-25T14:36:06.169Z,19.16
2022-09-25T14:38:36.837Z,19.18
2022-09-25T14:41:05.444Z,19.20
2022-09-25T14:43:58.616Z,19.14
2022-09-25T14:46:26.608Z,19.17
2022-09-25T14:48:57.201Z,19.16
2022-09-25T14:51:32.880Z,19.07
2022-09-25T14:54:05.107Z,19.10
2022-09-25T14:56:34.318Z,19.11
2022-09-25T14:59:10.277Z,19.14
2022-09-25T15:01:44.436Z,19.14
2022-09-25T15:04:11.655Z,19.10
2022-09-25T15:06:40.546Z,19.11
2022-09-25T15:09:26.493Z,19.08
2022-09-25T15:11:54.826Z,19.05
2022-09-25T15:14:22.303Z,19.05
2022-09-25T15:17:08.152Z,19.02
2022-09-25T15:19:37.633Z,19.02
2022-09-25T15:22:12.604Z,19.04
2022-09-25T15:24:45.664Z,19.14
2022-09-25T15:27:13.417Z,19.09
2022-09-25T15:29:42.877Z,19.08
2022-09-25T15:32:21.322Z,19.03
2022-09-25T15:34:48.947Z,19.03
2022-09-25T15:37:26.406Z,19.04
2022-09-25T15:39:53.991Z,19.05
2022-09-25T15:42:23.783Z,18.99
2022-09-25T15:44:50.892Z,18.97
2022-09-25T15:47:43.980Z,18.97
2022-09-25T15:50:17.320Z,18.85
2022-09-25T15:52:49.995Z,18.79
2022-09-25T15:55:17.570Z,18.76
2022-09-25T15:57:44.810Z,18.71
2022-09-25T16:00:36.714Z,18.69
2022-09-25T16:03:33.856Z,18.65
2022-09-25T16:06:03.144Z,18.59
2022-09-25T16:08:32.142Z,18.57
2022-09-25T16:11:22.756Z,18.54
2022-09-25T16:13:51.795Z,18.51
2022-09-25T16:16:20.693Z,18.51
2022-09-25T16:18:47.962Z,18.58
2022-09-25T16:21:31.805Z,18.57
2022-09-25T16:24:00.929Z,18.60
2022-09-25T16:26:38.870Z,18.62
2022-09-25T16:29:14.160Z,18.59
2022-09-25T16:31:42.197Z,18.58
2022-09-25T16:34:35.528Z,18.56
2022-09-25T16:37:03.793Z,18.52
2022-09-25T16:39:38.559Z,18.50
2022-09-25T16:42:29.271Z,18.44
2022-09-25T16:45:16.851Z,18.42
2022-09-25T16:47:49.159Z,18.42
2022-09-25T16:50:17.285Z,18.36
2022-09-25T16:52:44.924Z,18.36
2022-09-25T16:55:19.849Z,18.30
2022-09-25T16:57:47.107Z,18.30
2022-09-25T17:00:19.100Z,18.25
2022-09-25T17:02:47.210Z,18.25
2022-09-25T17:05:17.621Z,18.23
2022-09-25T17:07:45.799Z,18.25
2022-09-25T17:10:15.192Z,18.29
2022-09-25T17:12:43.656Z,18.23
2022-09-25T17:15:14.803Z,18.22
2022-09-25T17:17:41.932Z,18.17
2022-09-25T17:20:10.639Z,18.12
2022-09-25T17:22:38.025Z,18.10
2022-09-25T17:25:19.586Z,18.11
2022-09-25T17:27:46.725Z,18.06
2022-09-25T17:30:14.052Z,17.98
2022-09-25T17:32:44.727Z,17.94
2022-09-25T17:35:24.817Z,17.89
2022-09-25T17:37:52.841Z,17.90
2022-09-25T17:40:20.344Z,17.87
2022-09-25T17:42:47.474Z,17.87
2022-09-25T17:45:25.772Z,17.82
2022-09-25T17:47:55.745Z,17.80
2022-09-25T17:50:23.199Z,17.77
2022-09-25T17:52:50.941Z,17.73
2022-09-25T17:55:18.863Z,17.70
2022-09-25T17:57:46.435Z,17.79
2022-09-25T18:00:13.919Z,17.82
2022-09-25T18:02:41.107Z,17.78
2022-09-25T18:05:12.845Z,17.73
2022-09-25T18:07:40.159Z,17.68
2022-09-25T18:10:07.672Z,17.66
2022-09-25T18:12:34.797Z,17.63
2022-09-25T18:15:02.197Z,17.61
2022-09-25T18:17:29.336Z,17.64
2022-09-25T18:20:15.152Z,17.64
2022-09-25T18:22:42.399Z,17.57
2022-09-25T18:25:10.664Z,17.57
2022-09-25T18:27:39.221Z,17.55
2022-09-25T18:30:06.664Z,17.46
2022-09-25T18:32:33.795Z,17.48
2022-09-25T18:35:02.925Z,17.43
2022-09-25T18:37:30.233Z,17.36
2022-09-25T18:39:57.338Z,17.37
2022-09-25T18:42:24.404Z,17.33
2022-09-25T18:44:51.516Z,17.37
2022-09-25T18:47:18.638Z,17.38
2022-09-25T18:49:45.821Z,17.44
2022-09-25T18:52:12.898Z,17.44
2022-09-25T18:54:42.258Z,17.49
2022-09-25T18:57:10.623Z,17.44
2022-09-25T18:59:38.726Z,17.39
2022-09-25T19:02:07.011Z,17.30
2022-09-25T19:04:36.020Z,17.23
2022-09-25T19:07:03.145Z,17.16
2022-09-25T19:09:30.286Z,17.14
2022-09-25T19:11:57.404Z,17.10
2022-09-25T19:14:24.556Z,17.06
2022-09-25T19:16:54.398Z,17.06
2022-09-25T19:19:21.487Z,17.07
2022-09-25T19:21:48.635Z,17.09
2022-09-25T19:24:18.221Z,17.06
2022-09-25T19:26:45.437Z,17.02
2022-09-25T19:29:12.718Z,17.03
2022-09-25T19:31:40.124Z,16.94
2022-09-25T19:34:07.305Z,16.88
2022-09-25T19:36:34.829Z,16.85
2022-09-25T19:39:02.658Z,16.78
2022-09-25T19:41:34.102Z,16.72
2022-09-25T19:44:05.781Z,16.71
2022-09-25T19:46:35.621Z,16.68
2022-09-25T19:49:02.884Z,16.62
2022-09-25T19:51:30.200Z,16.60
2022-09-25T19:53:57.314Z,16.58
2022-09-25T19:56:24.387Z,16.62
2022-09-25T19:58:51.512Z,16.66
2022-09-25T20:01:20.421Z,16.75
2022-09-25T20:03:47.628Z,16.85
2022-09-25T20:06:16.022Z,16.86
2022-09-25T20:08:43.897Z,16.77
2022-09-25T20:11:21.593Z,16.67
2022-09-25T20:13:50.785Z,16.65
2022-09-25T20:16:19.837Z,16.66
2022-09-25T20:18:48.091Z,16.72
2022-09-25T20:21:17.469Z,16.74
2022-09-25T20:23:44.536Z,16.77
2022-09-25T20:26:12.990Z,16.75
2022-09-25T20:28:40.556Z,16.77
2022-09-25T20:31:09.996Z,16.73
2022-09-25T20:33:37.532Z,16.61
2022-09-25T20:36:06.027Z,16.58
2022-09-25T20:38:33.869Z,16.59
2022-09-25T20:41:01.628Z,16.64
2022-09-25T20:43:28.782Z,16.62
2022-09-25T20:46:01.009Z,16.64
2022-09-25T20:48:28.221Z,16.66
2022-09-25T20:50:55.398Z,16.71
2022-09-25T20:53:22.962Z,16.66
2022-09-25T20:55:50.080Z,16.59
2022-09-25T20:58:17.659Z,16.54
2022-09-25T21:00:45.557Z,16.51
2022-09-25T21:03:13.008Z,16.41
2022-09-25T21:05:40.960Z,16.48
2022-09-25T21:08:08.087Z,16.45
2022-09-25T21:10:36.137Z,16.49
2022-09-25T21:13:05.490Z,16.46
2022-09-25T21:15:33.149Z,16.44
2022-09-25T21:18:00.723Z,16.43
2022-09-25T21:20:28.019Z,16.37
2022-09-25T21:22:55.133Z,16.25
2022-09-25T21:25:22.321Z,16.20
2022-09-25T21:27:49.449Z,16.21
2022-09-25T21:30:16.758Z,16.09
2022-09-25T21:32:43.795Z,16.04
2022-09-25T21:35:11.342Z,16.02
2022-09-25T21:37:38.471Z,16.05
2022-09-25T21:40:06.099Z,15.96
2022-09-25T21:42:33.223Z,15.96
2022-09-25T21:45:01.102Z,15.99
2022-09-25T21:47:28.652Z,16.05
2022-09-25T21:49:56.366Z,15.90
2022-09-25T21:52:24.676Z,15.86
2022-09-25T21:54:52.420Z,16.00
2022-09-25T21:57:19.593Z,16.15
2022-09-25T21:59:46.666Z,16.12
2022-09-25T22:02:14.614Z,16.02
2022-09-25T22:04:41.750Z,16.04
2022-09-25T22:07:08.915Z,16.00
2022-09-25T22:09:36.048Z,16.02
2022-09-25T22:12:03.237Z,16.03
2022-09-25T22:14:30.567Z,16.02
2022-09-25T22:16:57.742Z,16.08
2022-09-25T22:19:29.253Z,16.11
2022-09-25T22:21:57.805Z,16.26
2022-09-25T22:24:25.361Z,16.34
2022-09-25T22:26:53.126Z,16.24
2022-09-25T22:29:20.832Z,16.19
2022-09-25T22:31:48.111Z,16.15
2022-09-25T22:34:15.124Z,16.09
2022-09-25T22:36:42.215Z,16.13
2022-09-25T22:39:11.812Z,16.16
2022-09-25T22:41:38.994Z,16.11
2022-09-25T22:44:06.105Z,16.08
2022-09-25T22:46:33.226Z,16.05
2022-09-25T22:49:00.413Z,16.01
2022-09-25T22:51:27.541Z,16.01
2022-09-25T22:53:54.667Z,15.97
2022-09-25T22:56:21.896Z,15.92
2022-09-25T22:58:50.375Z,15.77
2022-09-25T23:01:22.908Z,15.57
2022-09-25T23:03:53.649Z,15.59
2022-09-25T23:06:20.829Z,15.59
2022-09-25T23:08:53.442Z,15.63
2022-09-25T23:11:21.939Z,15.68
2022-09-25T23:13:50.605Z,15.72
2022-09-25T23:16:18.498Z,15.76
2022-09-25T23:18:45.739Z,15.75
2022-09-25T23:21:12.925Z,15.69
2022-09-25T23:23:40.030Z,15.59
2022-09-25T23:26:08.203Z,15.63
2022-09-25T23:28:36.321Z,15.73
2022-09-25T23:31:13.855Z,15.81
2022-09-25T23:33:41.574Z,15.83
2022-09-25T23:36:10.569Z,15.74
2022-09-25T23:38:37.987Z,15.67
2022-09-25T23:41:17.139Z,15.70
2022-09-25T23:43:44.891Z,15.76
2022-09-25T23:46:12.564Z,15.82
2022-09-25T23:48:39.721Z,15.81
2022-09-25T23:51:07.693Z,15.76
2022-09-25T23:53:35.479Z,15.81
2022-09-25T23:56:29.139Z,15.87
2022-09-25T23:58:57.351Z,15.91
